Terminal Aerodrome Forecast
Issued by NWS Denver/Boulder, CO

Home | Current Version | Previous Version | Text Only | Print | Product List | Glossary On
Versions: 1 2 3 4 5 6 7 8 9 10 11 12 13 14 15 16 17 18 19 20 21 22 23 24 25 26 27 28 29 30 31 32 33 34 35 36 37 38 39 40 41 42 43 44 45 46 47 48 49 50
000
FTUS45 KBOU 021132
TAFDEN
TAF
KDEN 021132Z 0212/0318 25007KT P6SM SCT140 BKN220
     FM021400 31006KT P6SM FEW100 BKN180
     FM021800 07006KT P6SM FEW080 BKN150
     FM022200 14012KT P6SM VCSH SCT080 BKN110
     FM030300 16014KT P6SM FEW080 BKN120
     FM030500 20012KT P6SM FEW090 SCT140 BKN200=

USA.gov is the U.S. government's official web portal to all federal, state and local government web resources and services.